Time;durP1;ratioP1;P1;durP2;ratioP2;P2;SDS_P1;SDS_P2;PMS_P1;PMS_P2;Temp;Humidity;BMP_temperature;BMP_pressure;BME280_temperature;BME280_humidity;BME280_pressure;Samples;Min_cycle;Max_cycle;Signal;HPM_P1;HPM_P2
2022/06/24 00:02:04;;;;;;;0.10;0.10;;;;;;;;;;6141043;23;20019;-95
2022/06/24 00:04:30;;;;;;;0.10;0.10;;;;;;;;;;6141394;23;20442;-94
2022/06/24 00:06:56;;;;;;;0.10;0.10;;;;;;;;;;6140789;23;20023;-94
2022/06/24 00:09:23;;;;;;;0.10;0.10;;;;;;;;;;6141230;23;20017;-94
2022/06/24 00:12:05;;;;;;;0.10;0.10;;;;;;;;;;6141635;23;20016;-94
2022/06/24 00:14:31;;;;;;;0.10;0.10;;;;;;;;;;6141165;23;20020;-93
2022/06/24 00:16:58;;;;;;;0.10;0.10;;;;;;;;;;6140995;23;20013;-93
2022/06/24 00:19:24;;;;;;;0.10;0.10;;;;;;;;;;6141401;23;20017;-94
2022/06/24 00:22:01;;;;;;;0.10;0.10;;;;;;;;;;6141011;23;20457;-94
2022/06/24 00:24:27;;;;;;;0.10;0.10;;;;;;;;;;6141696;23;20017;-94
2022/06/24 00:26:53;;;;;;;0.10;0.10;;;;;;;;;;6141304;23;20012;-94
2022/06/24 00:29:19;;;;;;;0.10;0.10;;;;;;;;;;6190350;23;20012;-94
2022/06/24 00:32:04;;;;;;;0.10;0.10;;;;;;;;;;6141010;23;20018;-94
2022/06/24 00:34:30;;;;;;;0.10;0.10;;;;;;;;;;6165303;23;20013;-94
2022/06/24 00:36:56;;;;;;;0.10;0.10;;;;;;;;;;6140978;23;20019;-94
2022/06/24 00:39:35;;;;;;;0.10;0.10;;;;;;;;;;6141200;23;20048;-94
2022/06/24 00:42:03;;;;;;;0.10;0.10;;;;;;;;;;6141154;23;20013;-94
2022/06/24 00:44:44;;;;;;;0.10;0.10;;;;;;;;;;6140523;23;20144;-94
2022/06/24 00:47:10;;;;;;;0.10;0.10;;;;;;;;;;6140433;23;20317;-94
2022/06/24 00:49:36;;;;;;;0.10;0.10;;;;;;;;;;6140558;23;20078;-93
2022/06/24 00:52:08;;;;;;;0.10;0.10;;;;;;;;;;6164638;23;20338;-94
2022/06/24 00:54:34;;;;;;;0.10;0.10;;;;;;;;;;6140408;23;20099;-94
2022/06/24 00:57:00;;;;;;;0.10;0.10;;;;;;;;;;6141185;23;20009;-94
2022/06/24 00:59:26;;;;;;;0.10;0.10;;;;;;;;;;6140753;23;20051;-95
2022/06/24 01:01:52;;;;;;;0.10;0.10;;;;;;;;;;6140755;23;20012;-94
2022/06/24 01:04:18;;;;;;;0.10;0.10;;;;;;;;;;6140892;23;20521;-94
2022/06/24 01:06:45;;;;;;;0.10;0.10;;;;;;;;;;6140970;23;20055;-95
2022/06/24 01:09:11;;;;;;;0.10;0.10;;;;;;;;;;6140869;23;20013;-94
2022/06/24 01:11:41;;;;;;;0.10;0.10;;;;;;;;;;6140669;23;20016;-94
2022/06/24 01:14:07;;;;;;;0.10;0.10;;;;;;;;;;6140399;23;20017;-94
2022/06/24 01:16:33;;;;;;;0.10;0.10;;;;;;;;;;6164960;23;20067;-95
2022/06/24 01:19:00;;;;;;;0.10;0.10;;;;;;;;;;6140690;23;20092;-93
2022/06/24 01:21:30;;;;;;;0.10;0.10;;;;;;;;;;6134898;23;20049;-93
2022/06/24 01:24:03;;;;;;;0.10;0.10;;;;;;;;;;6135512;23;20417;-94
2022/06/24 01:26:32;;;;;;;0.10;0.10;;;;;;;;;;6184944;23;20017;-94
2022/06/24 01:28:58;;;;;;;0.10;0.10;;;;;;;;;;6135734;23;20020;-94
2022/06/24 01:31:24;;;;;;;0.10;0.10;;;;;;;;;;6135102;23;20466;-94
2022/06/24 01:33:50;;;;;;;0.10;0.10;;;;;;;;;;6135201;23;20064;-94
2022/06/24 01:36:16;;;;;;;0.10;0.10;;;;;;;;;;6135727;23;20013;-94
2022/06/24 01:38:42;;;;;;;0.10;0.10;;;;;;;;;;6135726;23;20009;-94
2022/06/24 01:41:08;;;;;;;0.10;0.10;;;;;;;;;;6135651;23;20300;-94
2022/06/24 01:43:34;;;;;;;0.10;0.10;;;;;;;;;;6135476;23;20048;-94
2022/06/24 01:46:02;;;;;;;0.10;0.10;;;;;;;;;;6134973;23;20012;-94
2022/06/24 01:48:28;;;;;;;0.10;0.10;;;;;;;;;;6135576;23;20358;-94
2022/06/24 01:50:55;;;;;;;0.10;0.10;;;;;;;;;;6135205;23;20017;-94
2022/06/24 01:53:22;;;;;;;0.10;0.10;;;;;;;;;;6135049;23;20443;-93
2022/06/24 01:55:48;;;;;;;0.10;0.10;;;;;;;;;;6135682;23;20016;-93
2022/06/24 01:58:14;;;;;;;0.10;0.10;;;;;;;;;;6135017;23;20048;-94
2022/06/24 02:00:40;;;;;;;0.10;0.10;;;;;;;;;;6135494;23;20088;-94
2022/06/24 02:03:06;;;;;;;0.10;0.10;;;;;;;;;;6134728;23;20070;-94
2022/06/24 02:05:32;;;;;;;0.10;0.10;;;;;;;;;;6135317;23;20092;-94
2022/06/24 02:07:58;;;;;;;0.10;0.10;;;;;;;;;;6135414;23;20021;-94
2022/06/24 02:13:27;;;;;;;0.10;0.10;;;;;;;;;;6163432;23;20020;-93
2022/06/24 02:15:58;;;;;;;0.10;0.10;;;;;;;;;;6138880;23;20340;-94
2022/06/24 02:18:24;;;;;;;0.10;0.10;;;;;;;;;;6135267;23;20421;-94
2022/06/24 02:20:50;;;;;;;0.10;0.10;;;;;;;;;;6135283;23;20447;-94
2022/06/24 02:23:16;;;;;;;0.10;0.10;;;;;;;;;;6135435;23;20497;-93
2022/06/24 02:25:42;;;;;;;0.08;0.08;;;;;;;;;;6135636;23;20013;-94
2022/06/24 02:28:08;;;;;;;0.10;0.10;;;;;;;;;;6159429;23;20071;-95
2022/06/24 02:30:34;;;;;;;0.10;0.10;;;;;;;;;;6159704;23;20016;-94
2022/06/24 02:33:01;;;;;;;0.10;0.10;;;;;;;;;;6134633;23;20100;-94
2022/06/24 02:35:27;;;;;;;0.10;0.10;;;;;;;;;;6159319;23;20036;-94
2022/06/24 02:37:53;;;;;;;0.10;0.10;;;;;;;;;;6135361;23;20012;-94
2022/06/24 02:43:04;;;;;;;0.10;0.10;;;;;;;;;;6163185;23;20017;-93
2022/06/24 02:45:30;;;;;;;0.10;0.10;;;;;;;;;;6134917;23;20013;-93
2022/06/24 02:47:56;;;;;;;0.10;0.10;;;;;;;;;;6135101;23;20370;-94
2022/06/24 02:50:22;;;;;;;0.10;0.10;;;;;;;;;;6135404;23;20028;-93
2022/06/24 02:52:48;;;;;;;0.10;0.10;;;;;;;;;;6134995;23;20028;-94
2022/06/24 02:55:14;;;;;;;0.10;0.10;;;;;;;;;;6136303;23;20339;-94
2022/06/24 02:57:40;;;;;;;0.10;0.10;;;;;;;;;;6159437;23;20072;-94
2022/06/24 03:00:06;;;;;;;0.10;0.10;;;;;;;;;;6135222;23;20009;-93
2022/06/24 03:02:32;;;;;;;0.10;0.10;;;;;;;;;;6135149;23;20013;-94
2022/06/24 03:04:58;;;;;;;0.10;0.10;;;;;;;;;;6135224;23;20048;-94
2022/06/24 03:07:24;;;;;;;0.10;0.10;;;;;;;;;;6134886;23;20381;-94
2022/06/24 03:09:50;;;;;;;0.10;0.10;;;;;;;;;;6134836;23;20039;-94
2022/06/24 03:12:16;;;;;;;0.10;0.10;;;;;;;;;;6134892;23;20009;-94
2022/06/24 03:14:42;;;;;;;0.10;0.10;;;;;;;;;;6136333;23;20013;-94
2022/06/24 03:17:08;;;;;;;0.10;0.10;;;;;;;;;;6137239;23;20091;-94
2022/06/24 03:19:34;;;;;;;0.10;0.10;;;;;;;;;;6137222;23;20013;-93
2022/06/24 03:22:00;;;;;;;0.10;0.10;;;;;;;;;;6136386;23;20048;-95
2022/06/24 03:24:26;;;;;;;0.10;0.10;;;;;;;;;;6136630;23;20021;-93
2022/06/24 03:26:52;;;;;;;0.10;0.10;;;;;;;;;;6136871;23;20024;-95
2022/06/24 03:29:18;;;;;;;0.10;0.10;;;;;;;;;;6161175;23;20075;-94
2022/06/24 03:31:44;;;;;;;0.10;0.10;;;;;;;;;;6136662;23;20017;-94
2022/06/24 03:34:29;;;;;;;0.10;0.10;;;;;;;;;;6245232;22;20016;-94
2022/06/24 03:36:55;;;;;;;0.10;0.10;;;;;;;;;;6196782;23;20016;-94
2022/06/24 03:39:21;;;;;;;0.20;0.20;;;;;;;;;;6196604;23;20012;-94
2022/06/24 03:41:47;;;;;;;0.10;0.10;;;;;;;;;;6196034;23;20480;-94
2022/06/24 03:44:13;;;;;;;0.10;0.10;;;;;;;;;;6201341;23;20063;-93
2022/06/24 03:46:39;;;;;;;0.10;0.10;;;;;;;;;;6199570;23;20055;-94
2022/06/24 03:49:05;;;;;;;0.10;0.10;;;;;;;;;;6198113;23;20050;-94
2022/06/24 03:51:31;;;;;;;0.10;0.10;;;;;;;;;;6199076;23;20062;-94
2022/06/24 03:53:57;;;;;;;0.10;0.10;;;;;;;;;;6209579;23;20012;-94
2022/06/24 03:56:23;;;;;;;0.10;0.10;;;;;;;;;;6212994;23;20046;-93
2022/06/24 03:58:49;;;;;;;0.10;0.10;;;;;;;;;;6215501;23;20008;-93
2022/06/24 04:01:15;;;;;;;0.10;0.10;;;;;;;;;;6214721;23;20042;-93
2022/06/24 04:03:41;;;;;;;0.10;0.10;;;;;;;;;;6199882;23;20016;-94
2022/06/24 04:06:06;;;;;;;0.10;0.10;;;;;;;;;;6196002;23;20043;-93
2022/06/24 04:08:33;;;;;;;0.10;0.10;;;;;;;;;;6197369;23;20020;-93
2022/06/24 04:10:59;;;;;;;0.10;0.10;;;;;;;;;;6200095;23;20461;-94
2022/06/24 04:13:25;;;;;;;0.10;0.10;;;;;;;;;;6196049;23;20023;-94
2022/06/24 04:15:51;;;;;;;0.10;0.10;;;;;;;;;;6221195;23;20008;-93
2022/06/24 04:18:17;;;;;;;0.10;0.10;;;;;;;;;;6195729;23;20016;-94
2022/06/24 04:20:43;;;;;;;0.10;0.10;;;;;;;;;;6195533;23;20047;-94
2022/06/24 04:23:09;;;;;;;0.10;0.10;;;;;;;;;;6195633;23;20023;-94
2022/06/24 04:25:35;;;;;;;0.08;0.08;;;;;;;;;;6195558;23;20019;-94
2022/06/24 04:28:01;;;;;;;0.10;0.10;;;;;;;;;;6196014;23;20099;-93
2022/06/24 04:30:28;;;;;;;0.10;0.10;;;;;;;;;;6195537;23;20019;-94
2022/06/24 04:32:54;;;;;;;0.17;0.17;;;;;;;;;;6200448;23;20106;-93
2022/06/24 04:35:20;;;;;;;0.10;0.10;;;;;;;;;;6220706;23;20016;-94
2022/06/24 04:37:46;;;;;;;0.10;0.10;;;;;;;;;;6220680;23;20075;-94
2022/06/24 04:40:12;;;;;;;0.10;0.10;;;;;;;;;;6220216;23;20012;-94
2022/06/24 04:42:39;;;;;;;0.10;0.10;;;;;;;;;;6220516;23;20014;-94
2022/06/24 04:45:05;;;;;;;0.10;0.10;;;;;;;;;;6220863;23;20008;-93
2022/06/24 04:47:31;;;;;;;0.10;0.10;;;;;;;;;;6220629;23;20015;-94
2022/06/24 04:49:57;;;;;;;0.15;0.15;;;;;;;;;;6220600;23;20027;-95
2022/06/24 04:52:23;;;;;;;0.10;0.10;;;;;;;;;;6222538;23;20016;-94
2022/06/24 04:54:50;;;;;;;0.15;0.15;;;;;;;;;;6220371;23;20078;-94
2022/06/24 04:57:16;;;;;;;0.20;0.20;;;;;;;;;;6223572;23;20027;-94
2022/06/24 04:59:42;;;;;;;0.10;0.10;;;;;;;;;;6245250;23;20334;-93
2022/06/24 05:02:08;;;;;;;0.10;0.10;;;;;;;;;;6219978;23;20054;-94
2022/06/24 05:04:37;;;;;;;0.10;0.10;;;;;;;;;;6219748;23;20008;-95
2022/06/24 05:07:04;;;;;;;0.10;0.10;;;;;;;;;;6220375;23;20012;-95
2022/06/24 05:09:30;;;;;;;0.10;0.10;;;;;;;;;;6220096;23;20013;-94
2022/06/24 05:11:56;;;;;;;0.10;0.10;;;;;;;;;;6219830;23;20012;-94
2022/06/24 05:14:22;;;;;;;0.10;0.10;;;;;;;;;;6219917;23;20121;-94
2022/06/24 05:16:48;;;;;;;0.10;0.10;;;;;;;;;;6219930;23;20012;-94
2022/06/24 05:19:14;;;;;;;0.13;0.13;;;;;;;;;;6220586;23;20064;-94
2022/06/24 05:21:41;;;;;;;0.10;0.10;;;;;;;;;;6220334;23;20051;-94
2022/06/24 05:24:07;;;;;;;0.10;0.10;;;;;;;;;;6219930;23;20012;-94
2022/06/24 05:26:33;;;;;;;0.10;0.10;;;;;;;;;;6245262;23;20016;-94
2022/06/24 05:28:59;;;;;;;0.10;0.10;;;;;;;;;;6220220;23;20012;-94
2022/06/24 05:31:25;;;;;;;0.10;0.10;;;;;;;;;;6219893;23;20533;-93
2022/06/24 05:33:51;;;;;;;0.10;0.10;;;;;;;;;;6219244;23;20086;-94
2022/06/24 05:36:19;;;;;;;0.10;0.10;;;;;;;;;;6219624;23;20087;-94
2022/06/24 05:38:46;;;;;;;0.35;0.13;;;;;;;;;;6219627;23;20323;-94
2022/06/24 05:41:12;;;;;;;0.10;0.10;;;;;;;;;;6219394;23;20012;-94
2022/06/24 05:43:38;;;;;;;0.10;0.10;;;;;;;;;;6245311;23;20012;-93
2022/06/24 05:46:04;;;;;;;0.17;0.17;;;;;;;;;;6220028;23;20101;-93
2022/06/24 05:48:30;;;;;;;0.10;0.10;;;;;;;;;;6245529;23;20062;-94
2022/06/24 05:50:57;;;;;;;0.20;0.20;;;;;;;;;;6219625;23;20038;-94
2022/06/24 05:56:10;;;;;;;0.10;0.10;;;;;;;;;;6266398;22;20022;-94
2022/06/24 05:58:36;;;;;;;0.08;0.08;;;;;;;;;;6219598;23;20012;-95
2022/06/24 06:01:08;;;;;;;0.10;0.10;;;;;;;;;;6222973;23;20074;-96
2022/06/24 06:03:34;;;;;;;0.10;0.10;;;;;;;;;;6222471;23;20023;-95
2022/06/24 06:06:00;;;;;;;0.20;0.20;;;;;;;;;;6219371;23;20012;-96
2022/06/24 06:08:26;;;;;;;0.17;0.17;;;;;;;;;;6219718;23;20020;-96
2022/06/24 06:10:52;;;;;;;0.10;0.10;;;;;;;;;;6219780;23;20066;-95
2022/06/24 06:13:18;;;;;;;0.10;0.10;;;;;;;;;;6219169;23;20015;-95
2022/06/24 06:15:45;;;;;;;0.10;0.10;;;;;;;;;;6219605;23;20012;-95
2022/06/24 06:18:11;;;;;;;0.10;0.10;;;;;;;;;;6220037;23;20016;-95
2022/06/24 06:20:38;;;;;;;0.10;0.10;;;;;;;;;;6244798;23;20040;-95
2022/06/24 06:23:04;;;;;;;0.10;0.10;;;;;;;;;;6219132;23;20016;-93
2022/06/24 06:25:31;;;;;;;0.10;0.10;;;;;;;;;;6219486;23;20034;-95
2022/06/24 06:27:57;;;;;;;0.10;0.10;;;;;;;;;;6219005;23;20016;-95
2022/06/24 06:30:24;;;;;;;0.10;0.10;;;;;;;;;;6219637;23;20040;-94
2022/06/24 06:32:50;;;;;;;0.10;0.10;;;;;;;;;;6219051;23;20016;-95
2022/06/24 06:35:16;;;;;;;0.10;0.10;;;;;;;;;;6219504;23;20090;-95
2022/06/24 06:37:43;;;;;;;0.10;0.10;;;;;;;;;;6219661;23;20426;-95
2022/06/24 06:40:09;;;;;;;0.10;0.10;;;;;;;;;;6244705;23;20008;-94
2022/06/24 06:42:35;;;;;;;0.10;0.10;;;;;;;;;;6218987;23;20452;-94
2022/06/24 06:45:01;;;;;;;0.10;0.10;;;;;;;;;;6219161;23;20438;-96
2022/06/24 06:47:28;;;;;;;0.20;0.20;;;;;;;;;;6219513;23;20012;-93
2022/06/24 06:49:53;;;;;;;0.10;0.10;;;;;;;;;;6219403;23;20012;-94
2022/06/24 06:52:21;;;;;;;0.10;0.10;;;;;;;;;;6219203;23;20063;-94
2022/06/24 06:54:47;;;;;;;0.10;0.10;;;;;;;;;;6219143;23;20144;-94
2022/06/24 06:57:12;;;;;;;0.10;0.10;;;;;;;;;;6218912;23;20103;-92
2022/06/24 06:59:41;;;;;;;0.52;0.52;;;;;;;;;;6219338;23;20020;-93
2022/06/24 07:02:07;;;;;;;0.10;0.10;;;;;;;;;;6219399;23;20016;-96
2022/06/24 07:04:33;;;;;;;0.10;0.10;;;;;;;;;;6244118;23;20016;-96
2022/06/24 07:06:59;;;;;;;0.10;0.10;;;;;;;;;;6219154;23;20012;-95
2022/06/24 07:09:25;;;;;;;0.10;0.10;;;;;;;;;;6219099;23;20023;-95
2022/06/24 07:11:53;;;;;;;0.10;0.10;;;;;;;;;;6218693;23;20023;-95
2022/06/24 07:14:19;;;;;;;0.10;0.10;;;;;;;;;;6244175;23;20013;-95
2022/06/24 07:16:47;;;;;;;0.20;0.20;;;;;;;;;;6219126;23;20055;-95
2022/06/24 07:19:13;;;;;;;0.10;0.10;;;;;;;;;;6218726;23;20015;-94
2022/06/24 07:21:39;;;;;;;0.10;0.10;;;;;;;;;;6219402;23;20032;-95
2022/06/24 07:24:05;;;;;;;0.10;0.10;;;;;;;;;;6244558;23;20461;-95
2022/06/24 07:26:31;;;;;;;0.10;0.10;;;;;;;;;;6219341;23;20066;-95
2022/06/24 07:28:57;;;;;;;0.10;0.10;;;;;;;;;;6219142;23;20501;-94
2022/06/24 07:31:23;;;;;;;0.10;0.10;;;;;;;;;;6243822;23;20043;-93
2022/06/24 07:33:50;;;;;;;0.10;0.10;;;;;;;;;;6218781;23;20071;-93
2022/06/24 07:36:16;;;;;;;0.10;0.10;;;;;;;;;;6218236;23;20030;-95
2022/06/24 07:38:42;;;;;;;0.10;0.10;;;;;;;;;;6219155;23;20035;-95
2022/06/24 07:41:09;;;;;;;0.10;0.10;;;;;;;;;;6219136;23;20012;-94
2022/06/24 07:43:38;;;;;;;0.15;0.15;;;;;;;;;;6219381;23;20402;-95
2022/06/24 07:46:08;;;;;;;0.10;0.10;;;;;;;;;;6218898;23;20438;-95
2022/06/24 07:48:34;;;;;;;0.10;0.10;;;;;;;;;;6218606;23;20099;-94
2022/06/24 07:51:07;;;;;;;0.10;0.10;;;;;;;;;;6218939;23;20016;-94
2022/06/24 07:53:33;;;;;;;0.10;0.10;;;;;;;;;;6244126;23;20438;-94
2022/06/24 07:58:44;;;;;;;0.10;0.10;;;;;;;;;;6244461;23;20081;-94
2022/06/24 08:01:10;;;;;;;0.10;0.10;;;;;;;;;;6220361;23;20015;-94
2022/06/24 08:03:37;;;;;;;0.10;0.10;;;;;;;;;;6221016;23;20016;-93
2022/06/24 08:06:03;;;;;;;0.10;0.10;;;;;;;;;;6246176;23;20012;-95
2022/06/24 08:08:29;;;;;;;0.10;0.10;;;;;;;;;;6246252;23;20015;-95
2022/06/24 08:10:55;;;;;;;0.13;0.13;;;;;;;;;;6245502;23;20042;-95
2022/06/24 08:13:21;;;;;;;0.10;0.10;;;;;;;;;;6220327;23;20157;-95
2022/06/24 08:15:47;;;;;;;0.10;0.10;;;;;;;;;;6220955;23;20019;-95
2022/06/24 08:18:13;;;;;;;0.10;0.10;;;;;;;;;;6220755;23;20016;-96
2022/06/24 08:20:39;;;;;;;0.10;0.10;;;;;;;;;;6220736;23;20012;-95
2022/06/24 08:23:05;;;;;;;0.10;0.10;;;;;;;;;;6220996;23;20104;-95
2022/06/24 08:25:31;;;;;;;0.10;0.10;;;;;;;;;;6221067;23;20016;-95
2022/06/24 08:27:58;;;;;;;0.10;0.10;;;;;;;;;;6220589;23;20016;-95
2022/06/24 08:30:24;;;;;;;0.20;0.20;;;;;;;;;;6220791;23;20056;-95
2022/06/24 08:32:50;;;;;;;0.20;0.20;;;;;;;;;;6219672;23;20030;-95
2022/06/24 08:35:16;;;;;;;0.10;0.10;;;;;;;;;;6220331;23;20103;-95
2022/06/24 08:37:42;;;;;;;0.10;0.10;;;;;;;;;;6220158;23;20047;-95
2022/06/24 08:40:09;;;;;;;0.10;0.10;;;;;;;;;;6220281;23;20322;-96
2022/06/24 08:42:37;;;;;;;0.10;0.10;;;;;;;;;;6220778;23;20016;-93
2022/06/24 08:45:03;;;;;;;0.10;0.10;;;;;;;;;;6220298;23;20035;-94
2022/06/24 08:47:29;;;;;;;0.10;0.10;;;;;;;;;;6220502;23;20011;-94
2022/06/24 08:49:55;;;;;;;0.10;0.10;;;;;;;;;;6220412;23;20055;-94
2022/06/24 08:52:21;;;;;;;0.28;0.28;;;;;;;;;;6220408;23;20019;-93
2022/06/24 08:54:47;;;;;;;0.10;0.10;;;;;;;;;;6220349;23;20020;-96
2022/06/24 08:57:13;;;;;;;0.10;0.10;;;;;;;;;;6220632;23;20430;-96
2022/06/24 08:59:39;;;;;;;0.10;0.10;;;;;;;;;;6220128;23;20019;-94
2022/06/24 09:02:05;;;;;;;0.10;0.10;;;;;;;;;;6220340;23;20016;-94
2022/06/24 09:04:34;;;;;;;0.10;0.10;;;;;;;;;;6220186;23;20016;-95
2022/06/24 09:07:02;;;;;;;0.10;0.10;;;;;;;;;;6220200;23;20070;-95
2022/06/24 09:09:28;;;;;;;0.10;0.10;;;;;;;;;;6220328;23;20016;-92
2022/06/24 09:11:56;;;;;;;0.10;0.10;;;;;;;;;;6219609;23;20062;-95
2022/06/24 09:14:22;;;;;;;0.10;0.10;;;;;;;;;;6245581;23;20015;-95
2022/06/24 09:16:48;;;;;;;0.10;0.10;;;;;;;;;;6225508;23;20099;-94
2022/06/24 09:19:15;;;;;;;0.10;0.10;;;;;;;;;;6233381;23;20018;-93
2022/06/24 09:21:41;;;;;;;0.10;0.10;;;;;;;;;;6230201;23;20020;-96
2022/06/24 09:24:07;;;;;;;0.10;0.10;;;;;;;;;;6223513;23;20278;-94
2022/06/24 09:26:37;;;;;;;0.10;0.10;;;;;;;;;;6229559;23;20016;-95
2022/06/24 09:29:07;;;;;;;0.13;0.13;;;;;;;;;;6229403;23;20012;-95
2022/06/24 09:31:34;;;;;;;0.10;0.10;;;;;;;;;;6225780;23;20016;-94
2022/06/24 09:34:09;;;;;;;0.10;0.10;;;;;;;;;;6227858;23;20064;-95
2022/06/24 09:36:35;;;;;;;0.10;0.10;;;;;;;;;;6219865;23;20438;-94
2022/06/24 09:39:05;;;;;;;0.10;0.10;;;;;;;;;;6219599;23;20036;-94
2022/06/24 09:41:31;;;;;;;0.10;0.10;;;;;;;;;;6219631;23;20069;-94
2022/06/24 09:43:58;;;;;;;0.10;0.10;;;;;;;;;;6219484;23;20016;-95
2022/06/24 09:46:24;;;;;;;0.10;0.10;;;;;;;;;;6219427;23;20055;-94
2022/06/24 09:48:53;;;;;;;0.10;0.10;;;;;;;;;;6219440;23;20016;-94
2022/06/24 09:51:19;;;;;;;0.10;0.10;;;;;;;;;;6245111;23;20087;-94
2022/06/24 09:53:45;;;;;;;0.10;0.10;;;;;;;;;;6219845;23;20450;-94
2022/06/24 09:56:11;;;;;;;0.10;0.10;;;;;;;;;;6219726;23;20401;-94
2022/06/24 09:58:38;;;;;;;0.10;0.10;;;;;;;;;;6219810;23;20044;-94
2022/06/24 10:01:04;;;;;;;0.10;0.10;;;;;;;;;;6219523;23;20433;-94
2022/06/24 10:03:30;;;;;;;0.10;0.10;;;;;;;;;;6219539;23;20023;-95
2022/06/24 10:06:08;;;;;;;0.10;0.10;;;;;;;;;;6219136;23;20016;-94
2022/06/24 10:08:35;;;;;;;0.10;0.10;;;;;;;;;;6219838;23;20095;-94
2022/06/24 10:11:01;;;;;;;0.10;0.10;;;;;;;;;;6219303;23;20491;-94
2022/06/24 10:13:32;;;;;;;0.10;0.10;;;;;;;;;;6221127;23;20318;-94
2022/06/24 10:16:13;;;;;;;0.10;0.10;;;;;;;;;;6244366;23;20039;-94
2022/06/24 10:18:42;;;;;;;0.10;0.10;;;;;;;;;;6219787;23;20066;-92
2022/06/24 10:21:10;;;;;;;0.10;0.10;;;;;;;;;;6219370;23;20012;-92
2022/06/24 10:23:49;;;;;;;0.10;0.10;;;;;;;;;;6222419;23;20492;-93
2022/06/24 10:26:15;;;;;;;0.10;0.10;;;;;;;;;;6221509;23;20058;-94
2022/06/24 10:29:03;;;;;;;0.10;0.10;;;;;;;;;;6219248;23;20350;-92
2022/06/24 10:34:25;;;;;;;0.10;0.10;;;;;;;;;;6270038;22;20016;-93
2022/06/24 10:37:02;;;;;;;0.10;0.10;;;;;;;;;;6224871;22;20011;-93
2022/06/24 10:39:29;;;;;;;0.10;0.10;;;;;;;;;;6224300;22;20008;-92
2022/06/24 10:42:05;;;;;;;0.10;0.10;;;;;;;;;;6224993;22;20031;-92
2022/06/24 10:44:31;;;;;;;0.10;0.10;;;;;;;;;;6225649;22;20026;-93
2022/06/24 10:47:14;;;;;;;0.10;0.10;;;;;;;;;;6229338;22;20445;-93
2022/06/24 10:49:40;;;;;;;;;;;;;;;;;;6227413;22;20495;-93
2022/06/24 10:52:24;;;;;;;0.10;0.10;;;;;;;;;;6250376;22;19919;-93
2022/06/24 10:55:10;;;;;;;0.10;0.10;;;;;;;;;;6224177;22;20094;-93
2022/06/24 10:57:36;;;;;;;0.10;0.10;;;;;;;;;;6249636;22;20012;-93
2022/06/24 11:00:10;;;;;;;0.10;0.10;;;;;;;;;;6224228;22;20011;-93
2022/06/24 11:02:36;;;;;;;0.10;0.10;;;;;;;;;;6228090;22;20011;-93
2022/06/24 11:05:02;;;;;;;0.20;0.20;;;;;;;;;;6224658;22;20053;-93
2022/06/24 11:07:28;;;;;;;0.43;0.20;;;;;;;;;;6225011;22;20015;-92
2022/06/24 11:09:54;;;;;;;0.10;0.10;;;;;;;;;;6225111;22;20008;-93
2022/06/24 11:12:28;;;;;;;0.10;0.10;;;;;;;;;;6224677;22;20067;-92
2022/06/24 11:14:54;;;;;;;0.10;0.10;;;;;;;;;;6224334;22;20030;-92
2022/06/24 11:17:24;;;;;;;0.10;0.10;;;;;;;;;;6224289;22;20008;-93
2022/06/24 11:19:50;;;;;;;0.10;0.10;;;;;;;;;;6224200;22;20016;-92
2022/06/24 11:22:17;;;;;;;0.10;0.10;;;;;;;;;;6223667;22;20065;-93
2022/06/24 11:24:43;;;;;;;0.10;0.10;;;;;;;;;;6224055;22;20051;-92
2022/06/24 11:27:09;;;;;;;0.10;0.10;;;;;;;;;;6249647;22;20015;-92
2022/06/24 11:29:54;;;;;;;1.85;0.55;;;;;;;;;;6223874;22;20016;-92
2022/06/24 11:32:20;;;;;;;0.10;0.10;;;;;;;;;;6224003;22;20022;-93
2022/06/24 11:34:46;;;;;;;0.10;0.10;;;;;;;;;;6224235;22;20020;-92
2022/06/24 11:37:12;;;;;;;0.10;0.10;;;;;;;;;;6225757;22;20105;-92
2022/06/24 11:39:38;;;;;;;0.15;0.15;;;;;;;;;;6225478;22;20008;-93
2022/06/24 11:42:04;;;;;;;0.10;0.10;;;;;;;;;;6226006;22;20325;-93
2022/06/24 11:44:33;;;;;;;0.10;0.10;;;;;;;;;;6225374;22;20012;-92
2022/06/24 11:46:59;;;;;;;0.10;0.10;;;;;;;;;;6225286;22;20065;-92
2022/06/24 11:49:25;;;;;;;0.10;0.10;;;;;;;;;;6225682;22;20015;-91
2022/06/24 11:51:51;;;;;;;0.10;0.10;;;;;;;;;;6225687;22;20011;-93
2022/06/24 11:54:17;;;;;;;0.10;0.10;;;;;;;;;;6225543;22;20011;-92
2022/06/24 11:56:43;;;;;;;0.10;0.10;;;;;;;;;;6250858;22;20012;-92
2022/06/24 11:59:11;;;;;;;0.10;0.10;;;;;;;;;;6225595;22;20007;-92
2022/06/24 12:01:38;;;;;;;0.10;0.10;;;;;;;;;;6225833;22;20435;-92
2022/06/24 12:04:07;;;;;;;0.10;0.10;;;;;;;;;;6225512;22;20020;-92
2022/06/24 12:06:34;;;;;;;0.10;0.10;;;;;;;;;;6225472;22;20094;-92
2022/06/24 12:09:00;;;;;;;0.10;0.10;;;;;;;;;;6225489;22;20011;-92
2022/06/24 12:11:26;;;;;;;0.20;0.20;;;;;;;;;;6250744;22;20022;-92
2022/06/24 12:13:59;;;;;;;0.10;0.10;;;;;;;;;;6225372;22;20022;-92
2022/06/24 12:16:26;;;;;;;0.10;0.10;;;;;;;;;;6225415;22;20008;-92
2022/06/24 12:18:52;;;;;;;0.10;0.10;;;;;;;;;;6225672;22;20012;-92
2022/06/24 12:21:25;;;;;;;0.10;0.10;;;;;;;;;;6225741;22;20007;-92
2022/06/24 12:23:51;;;;;;;0.10;0.10;;;;;;;;;;6225427;22;20012;-92
2022/06/24 12:26:17;;;;;;;0.10;0.10;;;;;;;;;;6225184;22;20014;-92
2022/06/24 12:28:44;;;;;;;0.10;0.10;;;;;;;;;;6250980;22;20195;-92
2022/06/24 12:31:11;;;;;;;0.10;0.10;;;;;;;;;;6225687;22;20011;-92
2022/06/24 12:33:53;;;;;;;0.10;0.10;;;;;;;;;;6225237;22;20055;-93
2022/06/24 12:36:19;;;;;;;0.15;0.15;;;;;;;;;;6225438;22;20016;-92
2022/06/24 12:38:45;;;;;;;0.20;0.20;;;;;;;;;;6225416;22;20176;-94
2022/06/24 12:41:15;;;;;;;0.10;0.10;;;;;;;;;;6224779;22;20007;-93
2022/06/24 12:44:01;;;;;;;0.10;0.10;;;;;;;;;;6224644;22;20098;-92
2022/06/24 12:46:27;;;;;;;0.28;0.28;;;;;;;;;;6224912;22;20011;-92
2022/06/24 12:51:44;;;;;;;0.10;0.10;;;;;;;;;;6249932;22;20441;-92
2022/06/24 12:54:10;;;;;;;0.20;0.20;;;;;;;;;;6224549;22;20016;-92
2022/06/24 12:56:36;;;;;;;0.20;0.20;;;;;;;;;;6250008;22;20449;-92
2022/06/24 12:59:03;;;;;;;0.10;0.10;;;;;;;;;;6250112;22;20064;-93
2022/06/24 13:01:29;;;;;;;0.22;0.22;;;;;;;;;;6224810;22;20007;-93
2022/06/24 13:03:55;;;;;;;0.10;0.10;;;;;;;;;;6224744;22;20098;-92
2022/06/24 13:06:21;;;;;;;0.10;0.10;;;;;;;;;;6250122;22;20011;-92
2022/06/24 13:08:47;;;;;;;0.10;0.10;;;;;;;;;;6250712;22;20019;-92
2022/06/24 13:11:13;;;;;;;0.10;0.10;;;;;;;;;;6224531;22;20337;-92
2022/06/24 13:13:39;;;;;;;0.10;0.10;;;;;;;;;;6250096;22;20051;-92
2022/06/24 13:16:05;;;;;;;0.13;0.13;;;;;;;;;;6224812;22;20042;-92
2022/06/24 13:18:31;;;;;;;0.10;0.10;;;;;;;;;;6225053;22;20015;-93
2022/06/24 13:20:57;;;;;;;0.20;0.20;;;;;;;;;;6225354;22;20093;-93
2022/06/24 13:23:23;;;;;;;0.10;0.10;;;;;;;;;;6225374;22;20043;-93
2022/06/24 13:25:49;;;;;;;0.10;0.10;;;;;;;;;;6250391;22;20065;-93
2022/06/24 13:28:15;;;;;;;0.10;0.10;;;;;;;;;;6224976;22;20016;-93
2022/06/24 13:30:41;;;;;;;0.10;0.10;;;;;;;;;;6224713;22;20016;-93
2022/06/24 13:33:07;;;;;;;0.10;0.10;;;;;;;;;;6249656;22;20380;-93
2022/06/24 13:35:33;;;;;;;0.20;0.20;;;;;;;;;;6250389;22;20012;-92
2022/06/24 13:37:59;;;;;;;0.10;0.10;;;;;;;;;;6224910;22;20015;-93
2022/06/24 13:40:25;;;;;;;0.17;0.17;;;;;;;;;;6224491;22;20065;-93
2022/06/24 13:42:51;;;;;;;0.10;0.10;;;;;;;;;;6224776;22;20019;-93
2022/06/24 13:45:17;;;;;;;0.10;0.10;;;;;;;;;;6224165;22;20054;-93
2022/06/24 13:47:43;;;;;;;0.20;0.20;;;;;;;;;;6224982;22;20063;-93
2022/06/24 13:50:09;;;;;;;0.65;0.30;;;;;;;;;;6224408;22;20008;-93
2022/06/24 13:52:35;;;;;;;0.10;0.10;;;;;;;;;;6224695;22;20018;-93
2022/06/24 13:55:01;;;;;;;0.10;0.10;;;;;;;;;;6224538;22;20095;-93
2022/06/24 13:57:27;;;;;;;0.10;0.10;;;;;;;;;;6224616;22;20363;-93
2022/06/24 13:59:54;;;;;;;0.20;0.20;;;;;;;;;;6224121;22;20007;-93
2022/06/24 14:02:20;;;;;;;0.10;0.10;;;;;;;;;;6224026;22;20077;-93
2022/06/24 14:04:47;;;;;;;0.10;0.10;;;;;;;;;;6224245;22;20022;-93
2022/06/24 14:07:13;;;;;;;0.10;0.10;;;;;;;;;;6224229;22;20015;-93
2022/06/24 14:09:39;;;;;;;0.10;0.10;;;;;;;;;;6224309;22;20461;-93
2022/06/24 14:12:06;;;;;;;0.10;0.10;;;;;;;;;;6223995;22;20016;-93
2022/06/24 14:14:32;;;;;;;0.10;0.10;;;;;;;;;;6224558;22;20016;-93
2022/06/24 14:16:58;;;;;;;0.10;0.10;;;;;;;;;;6224212;22;20081;-93
2022/06/24 14:19:24;;;;;;;0.20;0.20;;;;;;;;;;6224423;22;20065;-94
2022/06/24 14:21:50;;;;;;;0.10;0.10;;;;;;;;;;6224338;22;20014;-94
2022/06/24 14:24:35;;;;;;;0.10;0.10;;;;;;;;;;6249537;22;20094;-95
2022/06/24 14:27:01;;;;;;;0.10;0.10;;;;;;;;;;6223941;22;20064;-93
2022/06/24 14:29:27;;;;;;;0.10;0.10;;;;;;;;;;6224695;22;20451;-93
2022/06/24 14:31:53;;;;;;;0.10;0.10;;;;;;;;;;6223677;22;20007;-93
2022/06/24 14:34:19;;;;;;;0.10;0.10;;;;;;;;;;6224173;22;20387;-94
2022/06/24 14:36:48;;;;;;;0.10;0.10;;;;;;;;;;6250215;22;20016;-93
2022/06/24 14:41:59;;;;;;;0.10;0.10;;;;;;;;;;6248839;22;20112;-93
2022/06/24 14:44:25;;;;;;;0.10;0.10;;;;;;;;;;6223939;22;20065;-93
2022/06/24 14:46:51;;;;;;;0.10;0.10;;;;;;;;;;6223839;22;20022;-93
2022/06/24 14:49:17;;;;;;;0.10;0.10;;;;;;;;;;6224042;22;20099;-94
2022/06/24 14:51:43;;;;;;;0.10;0.10;;;;;;;;;;6224156;22;20058;-93
2022/06/24 14:54:09;;;;;;;0.10;0.10;;;;;;;;;;6223663;22;20012;-94
2022/06/24 14:56:35;;;;;;;0.10;0.10;;;;;;;;;;6224342;22;20018;-92
2022/06/24 14:59:01;;;;;;;0.10;0.10;;;;;;;;;;6224318;22;20023;-93
2022/06/24 15:01:27;;;;;;;0.10;0.10;;;;;;;;;;6223869;22;20394;-93
2022/06/24 15:03:53;;;;;;;0.15;0.15;;;;;;;;;;6223793;22;20016;-93